Frankfort, Kentucky
Current Conditions -  °F | °C
As of 7:53 PM on Tuesday 21 Oct 2014 (Local Time) from KFFT Reporting Station
Overcast Overcast  
Wind Chill: 53°   Ceiling: 5500
Heat Index: 53°   Visibility: 10mi
Dew Point: 39°   Wind: 3mph
Humidity: 59%   Direction: 360°N
Pressure: 30.11"   Gusts: NA
Location:  38.2°N, 84.88°W
Report Text: KFFT 212353Z AUTO 36003KT 10SM OVC055 12/04 A3011 RMK AO2 SLP196 T01170039 10139 20117 53010
Loading
Personal Weather Stations






























Interactive Weather Map
Tropical Storm Tracking
New forecast layout! Learn more

10-Day Weather Forecast

Advertisements
Track Severe Weather on mobile